sensor_id;sensor_type;location;lat;lon;timestamp;P1;durP1;ratioP1;P2;durP2;ratioP2
20040;SDS011;10181;48.072;9.884;2023-09-18T00:02:25;1.83;;;1.73;;
20040;SDS011;10181;48.072;9.884;2023-09-18T00:04:51;1.60;;;1.50;;
20040;SDS011;10181;48.072;9.884;2023-09-18T00:07:17;1.50;;;1.50;;
20040;SDS011;10181;48.072;9.884;2023-09-18T00:09:43;2.40;;;2.23;;
20040;SDS011;10181;48.072;9.884;2023-09-18T00:12:09;2.00;;;1.90;;
20040;SDS011;10181;48.072;9.884;2023-09-18T00:14:35;2.67;;;1.70;;
20040;SDS011;10181;48.072;9.884;2023-09-18T00:17:01;2.10;;;2.00;;
20040;SDS011;10181;48.072;9.884;2023-09-18T00:19:27;2.07;;;1.97;;
20040;SDS011;10181;48.072;9.884;2023-09-18T00:21:53;1.73;;;1.63;;
20040;SDS011;10181;48.072;9.884;2023-09-18T00:24:19;1.90;;;1.80;;
20040;SDS011;10181;48.072;9.884;2023-09-18T00:26:45;1.90;;;1.80;;
20040;SDS011;10181;48.072;9.884;2023-09-18T00:29:12;1.87;;;1.77;;
20040;SDS011;10181;48.072;9.884;2023-09-18T00:31:38;2.00;;;1.90;;
20040;SDS011;10181;48.072;9.884;2023-09-18T00:34:04;1.90;;;1.80;;
20040;SDS011;10181;48.072;9.884;2023-09-18T00:36:30;1.70;;;1.60;;
20040;SDS011;10181;48.072;9.884;2023-09-18T00:38:55;2.47;;;2.27;;
20040;SDS011;10181;48.072;9.884;2023-09-18T00:41:21;1.60;;;1.50;;
20040;SDS011;10181;48.072;9.884;2023-09-18T00:43:46;1.97;;;1.87;;
20040;SDS011;10181;48.072;9.884;2023-09-18T00:46:12;1.80;;;1.70;;
20040;SDS011;10181;48.072;9.884;2023-09-18T00:48:38;2.33;;;2.23;;
20040;SDS011;10181;48.072;9.884;2023-09-18T00:51:04;1.93;;;1.83;;
20040;SDS011;10181;48.072;9.884;2023-09-18T00:53:29;2.20;;;2.10;;
20040;SDS011;10181;48.072;9.884;2023-09-18T00:55:56;2.23;;;1.80;;
20040;SDS011;10181;48.072;9.884;2023-09-18T00:58:23;1.83;;;1.73;;
20040;SDS011;10181;48.072;9.884;2023-09-18T01:00:50;1.80;;;1.70;;
20040;SDS011;10181;48.072;9.884;2023-09-18T01:03:16;1.90;;;1.80;;
20040;SDS011;10181;48.072;9.884;2023-09-18T01:05:44;1.87;;;1.77;;
20040;SDS011;10181;48.072;9.884;2023-09-18T01:08:10;1.83;;;1.73;;
20040;SDS011;10181;48.072;9.884;2023-09-18T01:10:40;2.20;;;2.10;;
20040;SDS011;10181;48.072;9.884;2023-09-18T01:13:29;1.60;;;1.50;;
20040;SDS011;10181;48.072;9.884;2023-09-18T01:16:07;1.83;;;1.73;;
20040;SDS011;10181;48.072;9.884;2023-09-18T01:18:37;1.90;;;1.80;;
20040;SDS011;10181;48.072;9.884;2023-09-18T01:21:02;2.23;;;2.13;;
20040;SDS011;10181;48.072;9.884;2023-09-18T01:23:28;2.00;;;1.90;;
20040;SDS011;10181;48.072;9.884;2023-09-18T01:25:54;2.00;;;1.90;;
20040;SDS011;10181;48.072;9.884;2023-09-18T01:28:19;2.27;;;2.17;;
20040;SDS011;10181;48.072;9.884;2023-09-18T01:30:45;2.50;;;2.30;;
20040;SDS011;10181;48.072;9.884;2023-09-18T01:33:10;2.27;;;2.17;;
20040;SDS011;10181;48.072;9.884;2023-09-18T01:35:37;2.20;;;2.10;;
20040;SDS011;10181;48.072;9.884;2023-09-18T01:38:03;2.07;;;1.97;;
20040;SDS011;10181;48.072;9.884;2023-09-18T01:40:29;2.53;;;2.33;;
20040;SDS011;10181;48.072;9.884;2023-09-18T01:42:56;1.90;;;1.80;;
20040;SDS011;10181;48.072;9.884;2023-09-18T01:45:22;1.70;;;1.60;;
20040;SDS011;10181;48.072;9.884;2023-09-18T01:47:47;2.20;;;2.07;;
20040;SDS011;10181;48.072;9.884;2023-09-18T01:50:13;2.00;;;1.90;;
20040;SDS011;10181;48.072;9.884;2023-09-18T01:52:38;2.17;;;1.73;;
20040;SDS011;10181;48.072;9.884;2023-09-18T01:55:04;2.07;;;1.97;;
20040;SDS011;10181;48.072;9.884;2023-09-18T01:57:31;1.67;;;1.57;;
20040;SDS011;10181;48.072;9.884;2023-09-18T01:59:56;1.90;;;1.80;;
20040;SDS011;10181;48.072;9.884;2023-09-18T02:02:22;2.20;;;2.10;;
20040;SDS011;10181;48.072;9.884;2023-09-18T02:04:47;2.10;;;2.00;;
20040;SDS011;10181;48.072;9.884;2023-09-18T02:07:13;1.57;;;1.47;;
20040;SDS011;10181;48.072;9.884;2023-09-18T02:09:39;1.90;;;1.80;;
20040;SDS011;10181;48.072;9.884;2023-09-18T02:12:04;2.07;;;1.93;;
20040;SDS011;10181;48.072;9.884;2023-09-18T02:14:31;1.83;;;1.73;;
20040;SDS011;10181;48.072;9.884;2023-09-18T02:16:56;1.93;;;1.83;;
20040;SDS011;10181;48.072;9.884;2023-09-18T02:19:22;2.20;;;2.10;;
20040;SDS011;10181;48.072;9.884;2023-09-18T02:21:48;1.97;;;1.87;;
20040;SDS011;10181;48.072;9.884;2023-09-18T02:24:13;1.57;;;1.50;;
20040;SDS011;10181;48.072;9.884;2023-09-18T02:26:39;1.77;;;1.67;;
20040;SDS011;10181;48.072;9.884;2023-09-18T02:29:08;1.63;;;1.53;;
20040;SDS011;10181;48.072;9.884;2023-09-18T02:31:39;1.50;;;1.40;;
20040;SDS011;10181;48.072;9.884;2023-09-18T02:34:05;1.57;;;1.47;;
20040;SDS011;10181;48.072;9.884;2023-09-18T02:36:32;2.20;;;2.00;;
20040;SDS011;10181;48.072;9.884;2023-09-18T02:38:58;1.90;;;1.80;;
20040;SDS011;10181;48.072;9.884;2023-09-18T02:41:23;1.40;;;1.40;;
20040;SDS011;10181;48.072;9.884;2023-09-18T02:43:49;1.30;;;1.30;;
20040;SDS011;10181;48.072;9.884;2023-09-18T02:46:14;1.53;;;1.47;;
20040;SDS011;10181;48.072;9.884;2023-09-18T02:48:40;1.20;;;1.20;;
20040;SDS011;10181;48.072;9.884;2023-09-18T02:51:06;1.50;;;1.50;;
20040;SDS011;10181;48.072;9.884;2023-09-18T02:53:31;1.87;;;1.77;;
20040;SDS011;10181;48.072;9.884;2023-09-18T02:55:57;1.83;;;1.73;;
20040;SDS011;10181;48.072;9.884;2023-09-18T02:58:24;1.87;;;1.77;;
20040;SDS011;10181;48.072;9.884;2023-09-18T03:00:51;1.40;;;1.40;;
20040;SDS011;10181;48.072;9.884;2023-09-18T03:03:18;1.50;;;1.40;;
20040;SDS011;10181;48.072;9.884;2023-09-18T03:05:44;1.80;;;1.70;;
20040;SDS011;10181;48.072;9.884;2023-09-18T03:08:10;1.73;;;1.63;;
20040;SDS011;10181;48.072;9.884;2023-09-18T03:10:38;1.37;;;1.30;;
20040;SDS011;10181;48.072;9.884;2023-09-18T03:13:05;1.60;;;1.50;;
20040;SDS011;10181;48.072;9.884;2023-09-18T03:15:31;2.00;;;1.80;;
20040;SDS011;10181;48.072;9.884;2023-09-18T03:17:57;1.77;;;1.67;;
20040;SDS011;10181;48.072;9.884;2023-09-18T03:20:24;1.60;;;1.50;;
20040;SDS011;10181;48.072;9.884;2023-09-18T03:22:51;1.27;;;1.27;;
20040;SDS011;10181;48.072;9.884;2023-09-18T03:25:17;1.70;;;1.60;;
20040;SDS011;10181;48.072;9.884;2023-09-18T03:27:43;1.30;;;1.30;;
20040;SDS011;10181;48.072;9.884;2023-09-18T03:30:09;1.60;;;1.50;;
20040;SDS011;10181;48.072;9.884;2023-09-18T03:32:37;1.93;;;1.73;;
20040;SDS011;10181;48.072;9.884;2023-09-18T03:35:03;2.00;;;1.80;;
20040;SDS011;10181;48.072;9.884;2023-09-18T03:37:29;1.83;;;1.70;;
20040;SDS011;10181;48.072;9.884;2023-09-18T03:39:55;1.60;;;1.60;;
20040;SDS011;10181;48.072;9.884;2023-09-18T03:42:21;1.83;;;1.73;;
20040;SDS011;10181;48.072;9.884;2023-09-18T03:44:47;1.67;;;1.57;;
20040;SDS011;10181;48.072;9.884;2023-09-18T03:47:12;1.40;;;1.40;;
20040;SDS011;10181;48.072;9.884;2023-09-18T03:49:38;1.87;;;1.77;;
20040;SDS011;10181;48.072;9.884;2023-09-18T03:52:03;1.70;;;1.60;;
20040;SDS011;10181;48.072;9.884;2023-09-18T03:54:29;1.80;;;1.70;;
20040;SDS011;10181;48.072;9.884;2023-09-18T03:56:54;1.70;;;1.60;;
20040;SDS011;10181;48.072;9.884;2023-09-18T03:59:20;2.17;;;1.70;;
20040;SDS011;10181;48.072;9.884;2023-09-18T04:01:46;1.20;;;1.20;;
20040;SDS011;10181;48.072;9.884;2023-09-18T04:04:11;1.70;;;1.60;;
20040;SDS011;10181;48.072;9.884;2023-09-18T04:06:43;3.47;;;1.90;;
20040;SDS011;10181;48.072;9.884;2023-09-18T04:09:11;1.80;;;1.70;;
20040;SDS011;10181;48.072;9.884;2023-09-18T04:11:37;1.80;;;1.70;;
20040;SDS011;10181;48.072;9.884;2023-09-18T04:14:03;2.43;;;2.03;;
20040;SDS011;10181;48.072;9.884;2023-09-18T04:16:28;4.67;;;2.80;;
20040;SDS011;10181;48.072;9.884;2023-09-18T04:18:56;4.03;;;3.20;;
20040;SDS011;10181;48.072;9.884;2023-09-18T04:21:22;2.20;;;2.10;;
20040;SDS011;10181;48.072;9.884;2023-09-18T04:23:48;3.07;;;2.50;;
20040;SDS011;10181;48.072;9.884;2023-09-18T04:26:20;2.00;;;1.90;;
20040;SDS011;10181;48.072;9.884;2023-09-18T04:28:46;3.00;;;2.80;;
20040;SDS011;10181;48.072;9.884;2023-09-18T04:31:12;2.50;;;2.20;;
20040;SDS011;10181;48.072;9.884;2023-09-18T04:33:38;2.03;;;1.93;;
20040;SDS011;10181;48.072;9.884;2023-09-18T04:36:04;1.80;;;1.70;;
20040;SDS011;10181;48.072;9.884;2023-09-18T04:38:29;2.33;;;2.10;;
20040;SDS011;10181;48.072;9.884;2023-09-18T04:40:58;1.90;;;1.80;;
20040;SDS011;10181;48.072;9.884;2023-09-18T04:43:25;1.90;;;1.80;;
20040;SDS011;10181;48.072;9.884;2023-09-18T04:45:50;2.10;;;2.00;;
20040;SDS011;10181;48.072;9.884;2023-09-18T04:48:16;2.20;;;2.00;;
20040;SDS011;10181;48.072;9.884;2023-09-18T04:50:43;2.43;;;2.33;;
20040;SDS011;10181;48.072;9.884;2023-09-18T04:53:08;3.10;;;2.20;;
20040;SDS011;10181;48.072;9.884;2023-09-18T04:55:34;2.83;;;2.50;;
20040;SDS011;10181;48.072;9.884;2023-09-18T04:58:00;2.30;;;2.10;;
20040;SDS011;10181;48.072;9.884;2023-09-18T05:00:26;2.70;;;2.50;;
20040;SDS011;10181;48.072;9.884;2023-09-18T05:02:53;4.53;;;3.13;;
20040;SDS011;10181;48.072;9.884;2023-09-18T05:05:19;3.47;;;3.17;;
20040;SDS011;10181;48.072;9.884;2023-09-18T05:07:45;4.57;;;3.73;;
20040;SDS011;10181;48.072;9.884;2023-09-18T05:10:10;7.00;;;3.87;;
20040;SDS011;10181;48.072;9.884;2023-09-18T05:12:38;3.73;;;3.47;;
20040;SDS011;10181;48.072;9.884;2023-09-18T05:15:05;3.03;;;2.60;;
20040;SDS011;10181;48.072;9.884;2023-09-18T05:17:41;3.23;;;2.30;;
20040;SDS011;10181;48.072;9.884;2023-09-18T05:20:09;3.70;;;2.60;;
20040;SDS011;10181;48.072;9.884;2023-09-18T05:22:37;2.90;;;2.63;;
20040;SDS011;10181;48.072;9.884;2023-09-18T05:25:02;3.57;;;3.27;;
20040;SDS011;10181;48.072;9.884;2023-09-18T05:27:29;2.27;;;2.17;;
20040;SDS011;10181;48.072;9.884;2023-09-18T05:29:55;3.30;;;2.80;;
20040;SDS011;10181;48.072;9.884;2023-09-18T05:32:20;3.10;;;2.80;;
20040;SDS011;10181;48.072;9.884;2023-09-18T05:34:46;5.70;;;3.10;;
20040;SDS011;10181;48.072;9.884;2023-09-18T05:37:11;2.90;;;2.70;;
20040;SDS011;10181;48.072;9.884;2023-09-18T05:39:37;2.70;;;2.50;;
20040;SDS011;10181;48.072;9.884;2023-09-18T05:42:03;3.20;;;2.93;;
20040;SDS011;10181;48.072;9.884;2023-09-18T05:44:29;3.00;;;2.77;;
20040;SDS011;10181;48.072;9.884;2023-09-18T05:46:54;4.73;;;2.87;;
20040;SDS011;10181;48.072;9.884;2023-09-18T05:49:20;3.07;;;2.80;;
20040;SDS011;10181;48.072;9.884;2023-09-18T05:51:45;2.63;;;2.43;;
20040;SDS011;10181;48.072;9.884;2023-09-18T05:54:13;2.83;;;2.63;;
20040;SDS011;10181;48.072;9.884;2023-09-18T05:56:39;1.90;;;1.80;;
20040;SDS011;10181;48.072;9.884;2023-09-18T05:59:04;2.70;;;2.50;;
20040;SDS011;10181;48.072;9.884;2023-09-18T06:01:30;3.57;;;3.00;;
20040;SDS011;10181;48.072;9.884;2023-09-18T06:03:57;2.73;;;2.53;;
20040;SDS011;10181;48.072;9.884;2023-09-18T06:06:23;3.73;;;3.00;;
20040;SDS011;10181;48.072;9.884;2023-09-18T06:08:50;2.40;;;2.20;;
20040;SDS011;10181;48.072;9.884;2023-09-18T06:11:18;3.70;;;2.70;;
20040;SDS011;10181;48.072;9.884;2023-09-18T06:13:44;2.50;;;2.30;;
20040;SDS011;10181;48.072;9.884;2023-09-18T06:16:10;3.07;;;2.87;;
20040;SDS011;10181;48.072;9.884;2023-09-18T06:18:36;2.50;;;2.30;;
20040;SDS011;10181;48.072;9.884;2023-09-18T06:21:03;2.80;;;2.60;;
20040;SDS011;10181;48.072;9.884;2023-09-18T06:23:30;3.20;;;2.80;;
20040;SDS011;10181;48.072;9.884;2023-09-18T06:25:55;2.47;;;2.27;;
20040;SDS011;10181;48.072;9.884;2023-09-18T06:28:22;2.93;;;2.73;;
20040;SDS011;10181;48.072;9.884;2023-09-18T06:30:48;2.50;;;2.40;;
20040;SDS011;10181;48.072;9.884;2023-09-18T06:33:13;2.30;;;2.20;;
20040;SDS011;10181;48.072;9.884;2023-09-18T06:35:39;2.43;;;2.23;;
20040;SDS011;10181;48.072;9.884;2023-09-18T06:38:05;2.20;;;2.10;;
20040;SDS011;10181;48.072;9.884;2023-09-18T06:40:31;1.93;;;1.83;;
20040;SDS011;10181;48.072;9.884;2023-09-18T06:43:00;2.50;;;2.30;;
20040;SDS011;10181;48.072;9.884;2023-09-18T06:45:26;2.37;;;2.17;;
20040;SDS011;10181;48.072;9.884;2023-09-18T06:47:52;3.00;;;2.70;;
20040;SDS011;10181;48.072;9.884;2023-09-18T06:50:18;2.57;;;2.37;;
20040;SDS011;10181;48.072;9.884;2023-09-18T06:52:44;2.50;;;2.30;;
20040;SDS011;10181;48.072;9.884;2023-09-18T06:55:11;2.43;;;2.33;;
20040;SDS011;10181;48.072;9.884;2023-09-18T06:57:37;2.20;;;2.10;;
20040;SDS011;10181;48.072;9.884;2023-09-18T07:00:03;2.80;;;2.60;;
20040;SDS011;10181;48.072;9.884;2023-09-18T07:02:30;2.80;;;2.40;;
20040;SDS011;10181;48.072;9.884;2023-09-18T07:04:56;2.35;;;2.15;;
20040;SDS011;10181;48.072;9.884;2023-09-18T07:07:21;2.22;;;2.13;;
20040;SDS011;10181;48.072;9.884;2023-09-18T07:09:51;2.57;;;2.37;;
20040;SDS011;10181;48.072;9.884;2023-09-18T07:12:18;2.30;;;2.20;;
20040;SDS011;10181;48.072;9.884;2023-09-18T07:14:48;2.58;;;2.35;;
20040;SDS011;10181;48.072;9.884;2023-09-18T07:17:14;2.20;;;2.00;;
20040;SDS011;10181;48.072;9.884;2023-09-18T07:19:40;2.08;;;1.98;;
20040;SDS011;10181;48.072;9.884;2023-09-18T07:22:06;2.20;;;2.00;;
20040;SDS011;10181;48.072;9.884;2023-09-18T07:24:32;2.30;;;2.10;;
20040;SDS011;10181;48.072;9.884;2023-09-18T07:26:57;4.40;;;1.83;;
20040;SDS011;10181;48.072;9.884;2023-09-18T07:29:23;1.98;;;1.85;;
20040;SDS011;10181;48.072;9.884;2023-09-18T07:31:50;5.67;;;1.70;;
20040;SDS011;10181;48.072;9.884;2023-09-18T07:34:16;2.72;;;1.70;;
20040;SDS011;10181;48.072;9.884;2023-09-18T07:36:42;4.25;;;2.03;;
20040;SDS011;10181;48.072;9.884;2023-09-18T07:39:11;2.57;;;2.23;;
20040;SDS011;10181;48.072;9.884;2023-09-18T07:41:37;2.13;;;1.65;;
20040;SDS011;10181;48.072;9.884;2023-09-18T07:44:03;4.20;;;1.80;;
20040;SDS011;10181;48.072;9.884;2023-09-18T07:46:29;2.43;;;2.00;;
20040;SDS011;10181;48.072;9.884;2023-09-18T07:48:55;4.47;;;2.27;;
20040;SDS011;10181;48.072;9.884;2023-09-18T07:51:20;2.00;;;1.90;;
20040;SDS011;10181;48.072;9.884;2023-09-18T07:53:46;2.40;;;2.00;;
20040;SDS011;10181;48.072;9.884;2023-09-18T07:56:12;2.22;;;1.80;;
20040;SDS011;10181;48.072;9.884;2023-09-18T07:58:38;1.80;;;1.70;;
20040;SDS011;10181;48.072;9.884;2023-09-18T08:01:07;3.47;;;2.00;;
20040;SDS011;10181;48.072;9.884;2023-09-18T08:03:34;1.70;;;1.60;;
20040;SDS011;10181;48.072;9.884;2023-09-18T08:06:00;2.58;;;1.70;;
20040;SDS011;10181;48.072;9.884;2023-09-18T08:08:26;2.08;;;1.98;;
20040;SDS011;10181;48.072;9.884;2023-09-18T08:10:52;2.22;;;2.00;;
20040;SDS011;10181;48.072;9.884;2023-09-18T08:13:18;2.45;;;2.03;;
20040;SDS011;10181;48.072;9.884;2023-09-18T08:15:48;1.83;;;1.73;;
20040;SDS011;10181;48.072;9.884;2023-09-18T08:18:13;2.10;;;2.00;;
20040;SDS011;10181;48.072;9.884;2023-09-18T08:20:42;2.03;;;1.90;;
20040;SDS011;10181;48.072;9.884;2023-09-18T08:23:09;1.83;;;1.73;;
20040;SDS011;10181;48.072;9.884;2023-09-18T08:25:35;2.30;;;2.20;;
20040;SDS011;10181;48.072;9.884;2023-09-18T08:28:02;2.05;;;1.52;;
20040;SDS011;10181;48.072;9.884;2023-09-18T08:30:29;1.77;;;1.67;;
20040;SDS011;10181;48.072;9.884;2023-09-18T08:32:55;2.00;;;1.70;;
20040;SDS011;10181;48.072;9.884;2023-09-18T08:35:20;2.33;;;1.58;;
20040;SDS011;10181;48.072;9.884;2023-09-18T08:37:47;1.60;;;1.50;;
20040;SDS011;10181;48.072;9.884;2023-09-18T08:40:13;1.60;;;1.50;;
20040;SDS011;10181;48.072;9.884;2023-09-18T08:42:48;1.42;;;1.33;;
20040;SDS011;10181;48.072;9.884;2023-09-18T08:45:23;2.28;;;1.42;;
20040;SDS011;10181;48.072;9.884;2023-09-18T08:47:54;2.75;;;1.88;;
20040;SDS011;10181;48.072;9.884;2023-09-18T08:50:20;1.33;;;1.23;;
20040;SDS011;10181;48.072;9.884;2023-09-18T08:52:47;1.83;;;1.33;;
20040;SDS011;10181;48.072;9.884;2023-09-18T08:55:18;1.45;;;1.13;;
20040;SDS011;10181;48.072;9.884;2023-09-18T08:57:44;1.60;;;1.50;;
20040;SDS011;10181;48.072;9.884;2023-09-18T09:00:12;1.50;;;1.40;;
20040;SDS011;10181;48.072;9.884;2023-09-18T09:02:41;1.75;;;1.30;;
20040;SDS011;10181;48.072;9.884;2023-09-18T09:05:08;1.30;;;1.20;;
20040;SDS011;10181;48.072;9.884;2023-09-18T09:07:34;1.50;;;1.40;;
20040;SDS011;10181;48.072;9.884;2023-09-18T09:10:00;2.13;;;1.40;;
20040;SDS011;10181;48.072;9.884;2023-09-18T09:15:14;0.93;;;0.93;;
20040;SDS011;10181;48.072;9.884;2023-09-18T09:17:40;1.58;;;1.48;;
20040;SDS011;10181;48.072;9.884;2023-09-18T09:20:10;2.75;;;1.40;;
20040;SDS011;10181;48.072;9.884;2023-09-18T09:22:37;1.23;;;1.23;;
20040;SDS011;10181;48.072;9.884;2023-09-18T09:25:05;1.40;;;1.30;;
20040;SDS011;10181;48.072;9.884;2023-09-18T09:27:47;1.30;;;1.23;;
20040;SDS011;10181;48.072;9.884;2023-09-18T09:30:23;1.45;;;1.35;;
20040;SDS011;10181;48.072;9.884;2023-09-18T09:32:51;1.10;;;1.10;;
20040;SDS011;10181;48.072;9.884;2023-09-18T09:35:21;1.13;;;1.13;;
20040;SDS011;10181;48.072;9.884;2023-09-18T09:37:58;1.25;;;1.15;;
20040;SDS011;10181;48.072;9.884;2023-09-18T09:40:26;2.33;;;1.27;;
20040;SDS011;10181;48.072;9.884;2023-09-18T09:42:53;0.93;;;0.93;;
20040;SDS011;10181;48.072;9.884;2023-09-18T09:45:25;2.75;;;0.93;;
20040;SDS011;10181;48.072;9.884;2023-09-18T09:48:01;0.80;;;0.80;;
20040;SDS011;10181;48.072;9.884;2023-09-18T09:50:30;1.30;;;1.20;;
20040;SDS011;10181;48.072;9.884;2023-09-18T09:52:57;2.53;;;1.10;;
20040;SDS011;10181;48.072;9.884;2023-09-18T09:57:58;2.83;;;1.30;;
20040;SDS011;10181;48.072;9.884;2023-09-18T10:00:25;1.17;;;1.07;;
20040;SDS011;10181;48.072;9.884;2023-09-18T10:03:15;2.37;;;0.87;;
20040;SDS011;10181;48.072;9.884;2023-09-18T10:05:44;1.60;;;1.10;;
20040;SDS011;10181;48.072;9.884;2023-09-18T10:08:12;1.10;;;1.00;;
20040;SDS011;10181;48.072;9.884;2023-09-18T10:10:45;1.20;;;1.20;;
20040;SDS011;10181;48.072;9.884;2023-09-18T10:13:15;1.03;;;0.97;;
20040;SDS011;10181;48.072;9.884;2023-09-18T10:15:48;1.97;;;0.90;;
20040;SDS011;10181;48.072;9.884;2023-09-18T10:18:24;1.03;;;1.00;;
20040;SDS011;10181;48.072;9.884;2023-09-18T10:24:03;0.80;;;0.80;;
20040;SDS011;10181;48.072;9.884;2023-09-18T10:29:24;0.93;;;0.93;;
20040;SDS011;10181;48.072;9.884;2023-09-18T10:31:51;1.30;;;1.30;;
20040;SDS011;10181;48.072;9.884;2023-09-18T10:34:19;1.20;;;1.10;;
20040;SDS011;10181;48.072;9.884;2023-09-18T10:36:49;0.90;;;0.90;;
20040;SDS011;10181;48.072;9.884;2023-09-18T10:39:16;2.27;;;0.70;;
20040;SDS011;10181;48.072;9.884;2023-09-18T10:41:49;1.10;;;0.90;;
20040;SDS011;10181;48.072;9.884;2023-09-18T10:44:17;0.80;;;0.80;;
20040;SDS011;10181;48.072;9.884;2023-09-18T10:46:47;0.97;;;0.97;;
20040;SDS011;10181;48.072;9.884;2023-09-18T10:49:17;1.20;;;1.00;;
20040;SDS011;10181;48.072;9.884;2023-09-18T10:51:43;0.97;;;0.87;;
20040;SDS011;10181;48.072;9.884;2023-09-18T10:54:15;0.90;;;0.90;;
20040;SDS011;10181;48.072;9.884;2023-09-18T10:56:46;2.63;;;0.70;;
20040;SDS011;10181;48.072;9.884;2023-09-18T10:59:13;0.50;;;0.50;;
20040;SDS011;10181;48.072;9.884;2023-09-18T11:01:39;0.90;;;0.90;;
20040;SDS011;10181;48.072;9.884;2023-09-18T11:04:06;0.70;;;0.70;;
20040;SDS011;10181;48.072;9.884;2023-09-18T11:09:19;1.00;;;0.67;;
20040;SDS011;10181;48.072;9.884;2023-09-18T11:11:46;1.53;;;0.70;;
20040;SDS011;10181;48.072;9.884;2023-09-18T11:14:17;0.83;;;0.60;;
20040;SDS011;10181;48.072;9.884;2023-09-18T11:16:42;0.73;;;0.73;;
20040;SDS011;10181;48.072;9.884;2023-09-18T11:19:10;0.63;;;0.63;;
20040;SDS011;10181;48.072;9.884;2023-09-18T11:21:37;1.00;;;0.97;;
20040;SDS011;10181;48.072;9.884;2023-09-18T11:26:30;0.80;;;0.80;;
20040;SDS011;10181;48.072;9.884;2023-09-18T11:29:06;1.37;;;0.80;;
20040;SDS011;10181;48.072;9.884;2023-09-18T11:34:22;0.83;;;0.83;;
20040;SDS011;10181;48.072;9.884;2023-09-18T11:36:51;0.80;;;0.80;;
20040;SDS011;10181;48.072;9.884;2023-09-18T11:42:06;0.80;;;0.80;;
20040;SDS011;10181;48.072;9.884;2023-09-18T11:44:35;0.80;;;0.80;;
20040;SDS011;10181;48.072;9.884;2023-09-18T11:47:06;0.90;;;0.90;;
20040;SDS011;10181;48.072;9.884;2023-09-18T11:52:29;0.80;;;0.80;;
20040;SDS011;10181;48.072;9.884;2023-09-18T11:54:57;0.80;;;0.80;;
20040;SDS011;10181;48.072;9.884;2023-09-18T11:57:24;0.87;;;0.83;;
20040;SDS011;10181;48.072;9.884;2023-09-18T11:59:50;1.00;;;0.90;;
20040;SDS011;10181;48.072;9.884;2023-09-18T12:02:26;1.03;;;1.03;;
20040;SDS011;10181;48.072;9.884;2023-09-18T12:04:59;0.70;;;0.70;;
20040;SDS011;10181;48.072;9.884;2023-09-18T12:07:39;1.30;;;1.10;;
20040;SDS011;10181;48.072;9.884;2023-09-18T12:10:09;1.00;;;1.00;;
20040;SDS011;10181;48.072;9.884;2023-09-18T12:12:36;0.80;;;0.80;;
20040;SDS011;10181;48.072;9.884;2023-09-18T12:15:02;1.20;;;1.20;;
20040;SDS011;10181;48.072;9.884;2023-09-18T12:17:28;0.90;;;0.90;;
20040;SDS011;10181;48.072;9.884;2023-09-18T12:19:54;0.93;;;0.93;;
20040;SDS011;10181;48.072;9.884;2023-09-18T12:22:38;1.30;;;1.20;;
20040;SDS011;10181;48.072;9.884;2023-09-18T12:25:13;0.93;;;0.93;;
20040;SDS011;10181;48.072;9.884;2023-09-18T12:27:40;0.97;;;0.97;;
20040;SDS011;10181;48.072;9.884;2023-09-18T12:30:07;1.17;;;1.10;;
20040;SDS011;10181;48.072;9.884;2023-09-18T12:32:37;1.83;;;1.10;;
20040;SDS011;10181;48.072;9.884;2023-09-18T12:35:03;1.00;;;1.00;;
20040;SDS011;10181;48.072;9.884;2023-09-18T12:37:35;0.70;;;0.70;;
20040;SDS011;10181;48.072;9.884;2023-09-18T12:40:05;0.97;;;0.90;;
20040;SDS011;10181;48.072;9.884;2023-09-18T12:42:39;0.97;;;0.97;;
20040;SDS011;10181;48.072;9.884;2023-09-18T12:45:06;0.63;;;0.63;;
20040;SDS011;10181;48.072;9.884;2023-09-18T12:47:33;0.83;;;0.83;;
20040;SDS011;10181;48.072;9.884;2023-09-18T12:50:03;0.63;;;0.63;;
20040;SDS011;10181;48.072;9.884;2023-09-18T12:52:29;0.67;;;0.67;;
20040;SDS011;10181;48.072;9.884;2023-09-18T12:54:57;0.70;;;0.70;;
20040;SDS011;10181;48.072;9.884;2023-09-18T12:57:24;0.70;;;0.70;;
20040;SDS011;10181;48.072;9.884;2023-09-18T12:59:50;0.63;;;0.63;;
20040;SDS011;10181;48.072;9.884;2023-09-18T13:02:18;1.03;;;0.83;;
20040;SDS011;10181;48.072;9.884;2023-09-18T13:04:56;0.67;;;0.67;;
20040;SDS011;10181;48.072;9.884;2023-09-18T13:07:22;0.70;;;0.70;;
20040;SDS011;10181;48.072;9.884;2023-09-18T13:09:58;1.13;;;1.13;;
20040;SDS011;10181;48.072;9.884;2023-09-18T13:12:25;1.20;;;1.10;;
20040;SDS011;10181;48.072;9.884;2023-09-18T13:15:11;0.70;;;0.70;;
20040;SDS011;10181;48.072;9.884;2023-09-18T13:17:43;1.10;;;1.10;;
20040;SDS011;10181;48.072;9.884;2023-09-18T13:22:40;0.80;;;0.80;;
20040;SDS011;10181;48.072;9.884;2023-09-18T13:25:07;1.10;;;1.10;;
20040;SDS011;10181;48.072;9.884;2023-09-18T13:27:34;1.00;;;1.00;;
20040;SDS011;10181;48.072;9.884;2023-09-18T13:29:59;1.00;;;1.00;;
20040;SDS011;10181;48.072;9.884;2023-09-18T13:32:32;1.00;;;1.00;;
20040;SDS011;10181;48.072;9.884;2023-09-18T13:34:59;2.00;;;1.17;;
20040;SDS011;10181;48.072;9.884;2023-09-18T13:37:25;1.10;;;1.10;;
20040;SDS011;10181;48.072;9.884;2023-09-18T13:39:52;0.93;;;0.93;;
20040;SDS011;10181;48.072;9.884;2023-09-18T13:42:17;0.80;;;0.80;;
20040;SDS011;10181;48.072;9.884;2023-09-18T13:44:43;0.80;;;0.80;;
20040;SDS011;10181;48.072;9.884;2023-09-18T13:47:11;0.53;;;0.53;;
20040;SDS011;10181;48.072;9.884;2023-09-18T13:49:38;0.80;;;0.80;;
20040;SDS011;10181;48.072;9.884;2023-09-18T13:52:03;1.70;;;1.00;;
20040;SDS011;10181;48.072;9.884;2023-09-18T13:54:29;0.70;;;0.70;;
20040;SDS011;10181;48.072;9.884;2023-09-18T13:56:55;0.60;;;0.60;;
20040;SDS011;10181;48.072;9.884;2023-09-18T13:59:21;1.00;;;1.00;;
20040;SDS011;10181;48.072;9.884;2023-09-18T14:01:46;0.80;;;0.80;;
20040;SDS011;10181;48.072;9.884;2023-09-18T14:04:12;0.50;;;0.50;;
20040;SDS011;10181;48.072;9.884;2023-09-18T14:06:38;1.13;;;0.83;;
20040;SDS011;10181;48.072;9.884;2023-09-18T14:09:04;0.90;;;0.90;;
20040;SDS011;10181;48.072;9.884;2023-09-18T14:11:31;0.60;;;0.60;;
20040;SDS011;10181;48.072;9.884;2023-09-18T14:13:56;0.50;;;0.50;;
20040;SDS011;10181;48.072;9.884;2023-09-18T14:16:22;1.47;;;0.60;;
20040;SDS011;10181;48.072;9.884;2023-09-18T14:18:50;0.50;;;0.50;;
20040;SDS011;10181;48.072;9.884;2023-09-18T14:21:15;0.37;;;0.37;;
20040;SDS011;10181;48.072;9.884;2023-09-18T14:23:41;0.60;;;0.60;;
20040;SDS011;10181;48.072;9.884;2023-09-18T14:26:06;0.77;;;0.77;;
20040;SDS011;10181;48.072;9.884;2023-09-18T14:28:32;0.75;;;0.75;;
20040;SDS011;10181;48.072;9.884;2023-09-18T14:30:58;1.33;;;0.43;;
20040;SDS011;10181;48.072;9.884;2023-09-18T14:33:23;0.47;;;0.47;;
20040;SDS011;10181;48.072;9.884;2023-09-18T14:35:49;0.63;;;0.63;;
20040;SDS011;10181;48.072;9.884;2023-09-18T14:38:15;0.57;;;0.57;;
20040;SDS011;10181;48.072;9.884;2023-09-18T14:40:41;0.57;;;0.57;;
20040;SDS011;10181;48.072;9.884;2023-09-18T14:43:07;0.52;;;0.52;;
20040;SDS011;10181;48.072;9.884;2023-09-18T14:45:33;0.88;;;0.50;;
20040;SDS011;10181;48.072;9.884;2023-09-18T14:48:00;0.57;;;0.57;;
20040;SDS011;10181;48.072;9.884;2023-09-18T14:50:25;0.40;;;0.40;;
20040;SDS011;10181;48.072;9.884;2023-09-18T14:52:51;0.40;;;0.40;;
20040;SDS011;10181;48.072;9.884;2023-09-18T14:55:17;1.00;;;0.47;;
20040;SDS011;10181;48.072;9.884;2023-09-18T14:57:43;0.45;;;0.45;;
20040;SDS011;10181;48.072;9.884;2023-09-18T15:00:08;0.63;;;0.63;;
20040;SDS011;10181;48.072;9.884;2023-09-18T15:02:37;0.52;;;0.35;;
20040;SDS011;10181;48.072;9.884;2023-09-18T15:05:03;0.57;;;0.57;;
20040;SDS011;10181;48.072;9.884;2023-09-18T15:07:33;0.50;;;0.50;;
20040;SDS011;10181;48.072;9.884;2023-09-18T15:09:59;0.60;;;0.60;;
20040;SDS011;10181;48.072;9.884;2023-09-18T15:12:25;0.55;;;0.55;;
20040;SDS011;10181;48.072;9.884;2023-09-18T15:14:50;0.40;;;0.40;;
20040;SDS011;10181;48.072;9.884;2023-09-18T15:17:16;0.52;;;0.52;;